Time;durP1;ratioP1;P1;durP2;ratioP2;P2;SDS_P1;SDS_P2;PMS_P1;PMS_P2;Temp;Humidity;BMP_temperature;BMP_pressure;BME280_temperature;BME280_humidity;BME280_pressure;Samples;Min_cycle;Max_cycle;Signal;HPM_P1;HPM_P2
2021/05/18 00:00:54;;;;;;;11.87;8.53;;;;;;;16.54;100.00;100267.72;5071299;28;20885;-76
2021/05/18 00:03:20;;;;;;;12.60;8.27;;;;;;;16.56;100.00;100268.44;5071173;28;20168;-76
2021/05/18 00:05:51;;;;;;;13.00;8.70;;;;;;;16.63;100.00;100261.53;5071525;28;20418;-75
2021/05/18 00:08:19;;;;;;;12.80;8.10;;;;;;;16.62;100.00;100265.16;5071088;28;20156;-79
2021/05/18 00:13:37;;;;;;;9.57;7.83;;;;;;;16.64;100.00;100273.81;5071990;28;20555;-74
2021/05/18 00:16:05;;;;;;;13.13;9.07;;;;;;;16.67;100.00;100268.19;5070981;28;20412;-77
2021/05/18 00:18:31;;;;;;;12.30;7.83;;;;;;;16.75;100.00;100272.75;5070972;28;20422;-77
2021/05/18 00:20:57;;;;;;;10.77;8.13;;;;;;;16.76;100.00;100271.75;5069479;28;20454;-73
2021/05/18 00:23:23;;;;;;;13.27;7.93;;;;;;;16.71;100.00;100274.91;5070658;28;20657;-74
2021/05/18 00:25:49;;;;;;;11.17;8.60;;;;;;;16.80;100.00;100265.19;5071213;28;20179;-78
2021/05/18 00:28:15;;;;;;;12.83;9.20;;;;;;;16.82;100.00;100271.97;5070584;28;20414;-74
2021/05/18 00:30:41;;;;;;;13.70;8.23;;;;;;;16.79;100.00;100268.81;5071343;28;20183;-74
2021/05/18 00:33:12;;;;;;;20.77;8.37;;;;;;;16.80;100.00;100276.63;5070746;28;20184;-74
2021/05/18 00:35:38;;;;;;;12.83;8.63;;;;;;;16.79;100.00;100274.97;5068481;28;20469;-77
2021/05/18 00:38:04;;;;;;;16.27;9.90;;;;;;;16.76;100.00;100282.38;5070380;28;20475;-75
2021/05/18 00:40:30;;;;;;;12.20;9.73;;;;;;;16.81;100.00;100280.09;5070559;28;20258;-76
2021/05/18 00:42:56;;;;;;;13.87;8.90;;;;;;;16.85;100.00;100282.31;5070541;28;20446;-75
2021/05/18 00:45:30;;;;;;;13.00;9.80;;;;;;;16.82;100.00;100282.59;5070910;28;20423;-72
2021/05/18 00:47:56;;;;;;;18.73;9.80;;;;;;;16.80;100.00;100299.66;5070338;28;20260;-75
2021/05/18 00:50:22;;;;;;;10.23;8.13;;;;;;;16.76;100.00;100293.81;5070100;28;20403;-73
2021/05/18 00:52:48;;;;;;;11.30;7.30;;;;;;;16.82;100.00;100292.38;5069563;28;20426;-73
2021/05/18 00:55:21;;;;;;;10.53;7.87;;;;;;;16.83;100.00;100286.09;5070744;28;20172;-73
2021/05/18 01:00:32;;;;;;;14.67;9.33;;;;;;;16.78;100.00;100307.78;5059656;28;20896;-74
2021/05/18 01:02:58;;;;;;;13.10;8.97;;;;;;;16.80;100.00;100311.13;5069922;28;21266;-75
2021/05/18 01:06:18;;;;;;;11.93;9.27;;;;;;;16.81;100.00;100298.69;5070754;28;20411;-73
2021/05/18 01:08:09;;;;;;;10.93;8.17;;;;;;;16.86;100.00;100309.69;5070402;28;20195;-78
2021/05/18 01:10:35;;;;;;;11.60;7.50;;;;;;;16.96;100.00;100297.13;5069864;28;20467;-74
2021/05/18 01:13:00;;;;;;;8.87;7.13;;;;;;;16.88;100.00;100311.19;5070236;28;20176;-75
2021/05/18 01:15:26;;;;;;;10.27;7.27;;;;;;;16.83;100.00;100305.47;5070599;28;20336;-74
2021/05/18 01:17:51;;;;;;;12.20;6.30;;;;;;;16.97;100.00;100290.84;5069566;28;20164;-78
2021/05/18 01:20:18;;;;;;;9.67;6.70;;;;;;;17.01;100.00;100310.78;5070823;28;20337;-74
2021/05/18 01:22:48;;;;;;;7.23;6.20;;;;;;;16.91;100.00;100308.19;5070421;28;20259;-76
2021/05/18 01:25:16;;;;;;;10.83;6.90;;;;;;;17.02;100.00;100301.84;5070398;28;20391;-75
2021/05/18 01:27:42;;;;;;;6.80;5.07;;;;;;;16.98;100.00;100295.16;5069841;28;20419;-74
2021/05/18 01:30:10;;;;;;;8.10;5.13;;;;;;;16.97;100.00;100290.00;5069353;28;20484;-74
2021/05/18 01:32:36;;;;;;;9.90;5.90;;;;;;;16.98;100.00;100300.47;5069874;28;20164;-76
2021/05/18 01:35:05;;;;;;;7.83;7.03;;;;;;;17.07;100.00;100304.00;5070668;28;20832;-76
2021/05/18 01:37:31;;;;;;;6.40;5.10;;;;;;;17.10;100.00;100298.41;5067744;28;20464;-77
2021/05/18 01:40:08;;;;;;;11.03;5.63;;;;;;;17.08;100.00;100303.88;5069704;28;20486;-76
2021/05/18 01:42:48;;;;;;;8.23;5.47;;;;;;;17.12;100.00;100304.38;5062530;28;20176;-77
2021/05/18 01:45:17;;;;;;;7.97;4.97;;;;;;;17.13;100.00;100295.41;5072629;28;20386;-78
2021/05/18 01:47:53;;;;;;;6.80;5.47;;;;;;;17.09;100.00;100297.56;5065176;28;20415;-73
2021/05/18 01:50:33;;;;;;;8.30;5.57;;;;;;;17.03;100.00;100314.13;5071284;28;20796;-77
2021/05/18 01:52:59;;;;;;;8.63;5.73;;;;;;;17.08;100.00;100313.66;5071714;28;20403;-74
2021/05/18 01:55:39;;;;;;;9.40;6.60;;;;;;;16.91;100.00;100307.38;5072725;28;20436;-74
2021/05/18 01:58:06;;;;;;;14.60;6.27;;;;;;;16.86;100.00;100313.16;5071233;28;20421;-78
2021/05/18 02:00:34;;;;;;;10.43;7.77;;;;;;;16.71;100.00;100312.03;5071594;28;20490;-74
2021/05/18 02:03:00;;;;;;;13.33;7.47;;;;;;;16.55;100.00;100309.19;5071831;28;20953;-79
2021/05/18 02:05:29;;;;;;;11.63;7.23;;;;;;;16.73;100.00;100322.50;5072112;28;20498;-78
2021/05/18 02:07:57;;;;;;;10.37;7.00;;;;;;;16.83;100.00;100342.63;5071966;28;20395;-81
2021/05/18 02:10:23;;;;;;;7.60;6.57;;;;;;;16.82;100.00;100337.50;5071654;28;20435;-75
2021/05/18 02:12:49;;;;;;;11.20;6.20;;;;;;;16.83;100.00;100339.16;5071178;28;20418;-79
2021/05/18 02:18:22;;;;;;;5.30;4.77;;;;;;;17.04;100.00;100312.28;5071393;28;20176;-77
2021/05/18 02:21:27;;;;;;;7.23;4.83;;;;;;;16.85;100.00;100322.13;5071271;28;20455;-77
2021/05/18 02:26:24;;;;;;;6.10;4.90;;;;;;;16.42;100.00;100348.53;5071778;28;20406;-77
2021/05/18 02:28:50;;;;;;;7.57;5.00;;;;;;;16.23;100.00;100346.81;5071070;28;20418;-77
2021/05/18 02:31:16;;;;;;;8.27;4.60;;;;;;;16.25;100.00;100343.03;5054716;28;20412;-76
2021/05/18 02:33:51;;;;;;;5.30;2.60;;;;;;;16.48;100.00;100343.47;5070436;28;20183;-72
2021/05/18 02:36:24;;;;;;;7.47;2.30;;;;;;;16.77;100.00;100340.59;5068115;28;20426;-76
2021/05/18 02:38:50;;;;;;;4.03;2.17;;;;;;;16.97;100.00;100343.91;5070057;28;20474;-77
2021/05/18 02:41:16;;;;;;;3.97;2.20;;;;;;;17.00;100.00;100356.03;5071700;28;20507;-78
2021/05/18 02:43:54;;;;;;;3.67;1.93;;;;;;;17.06;100.00;100358.91;5069946;28;20186;-73
2021/05/18 02:49:08;;;;;;;3.07;1.80;;;;;;;17.01;100.00;100344.47;5072044;28;20398;-78
2021/05/18 02:51:34;;;;;;;3.40;2.00;;;;;;;16.94;100.00;100346.06;5071833;28;20230;-80
2021/05/18 02:54:00;;;;;;;5.03;2.53;;;;;;;16.98;100.00;100350.06;5071801;28;20449;-80
2021/05/18 02:56:33;;;;;;;4.57;2.20;;;;;;;16.98;100.00;100344.75;5069765;28;20668;-80
2021/05/18 03:01:24;;;;;;;4.27;1.90;;;;;;;16.98;100.00;100356.19;5057611;28;20476;-81
2021/05/18 03:03:50;;;;;;;4.17;1.70;;;;;;;17.00;100.00;100356.03;5067944;28;20164;-79
2021/05/18 03:06:15;;;;;;;4.57;1.93;;;;;;;16.95;100.00;100361.81;5068555;28;20161;-79
2021/05/18 03:08:41;;;;;;;4.73;3.03;;;;;;;16.89;100.00;100357.97;5051054;28;20650;-79
2021/05/18 03:11:11;;;;;;;5.80;2.60;;;;;;;16.93;100.00;100361.16;5057356;28;20219;-74
2021/05/18 03:13:37;;;;;;;6.13;2.30;;;;;;;16.98;100.00;100373.94;5069906;28;20256;-82
2021/05/18 03:16:02;;;;;;;5.27;2.33;;;;;;;16.95;100.00;100363.66;5062776;28;20490;-77
2021/05/18 03:18:28;;;;;;;5.20;1.60;;;;;;;16.91;100.00;100363.09;5051485;28;20545;-75
2021/05/18 03:20:54;;;;;;;3.00;1.30;;;;;;;16.98;100.00;100360.69;5060867;28;20654;-81
2021/05/18 03:23:19;;;;;;;3.00;1.30;;;;;;;16.95;100.00;100364.47;5052067;28;20733;-81
2021/05/18 03:25:45;;;;;;;5.47;2.07;;;;;;;16.96;100.00;100360.84;5062292;28;20264;-81
2021/05/18 03:28:10;;;;;;;3.90;2.00;;;;;;;16.95;100.00;100375.09;5060071;28;20175;-76
2021/05/18 03:35:51;;;;;;;3.30;1.30;;;;;;;17.12;100.00;100362.78;5063094;28;20469;-79
2021/05/18 03:38:30;;;;;;;8.07;1.20;;;;;;;17.22;100.00;100368.00;5066048;28;20469;-80
2021/05/18 03:41:01;;;;;;;2.90;1.10;;;;;;;17.27;100.00;100363.91;5069335;28;20205;-83
2021/05/18 04:05:09;;;;;;;5.83;1.63;;;;;;;17.42;100.00;100386.25;5060468;28;20417;-76
2021/05/18 04:13:04;;;;;;;3.07;1.63;;;;;;;17.41;100.00;100399.69;5068705;28;20398;-73
2021/05/18 04:18:17;;;;;;;7.00;2.50;;;;;;;17.59;100.00;100387.19;5069322;28;20473;-81
2021/05/18 04:20:54;;;;;;;3.47;2.20;;;;;;;17.72;100.00;100368.19;5068527;28;20816;-80
2021/05/18 04:23:31;;;;;;;3.63;2.10;;;;;;;17.81;100.00;100377.88;5067890;28;20425;-79
2021/05/18 04:50:47;;;;;;;5.13;2.40;;;;;;;17.54;100.00;100436.50;5069388;28;20409;-72
2021/05/18 05:14:25;;;;;;;7.83;2.23;;;;;;;16.75;100.00;100471.75;5053504;28;20415;-88
2021/05/18 05:16:52;;;;;;;11.23;1.90;;;;;;;16.39;100.00;100474.25;5064752;28;20414;-85
2021/05/18 05:19:18;;;;;;;4.30;2.70;;;;;;;16.01;100.00;100477.91;5064680;28;20423;-80
2021/05/18 05:21:43;;;;;;;6.30;1.87;;;;;;;16.00;100.00;100470.94;5064814;28;20430;-79
2021/05/18 05:24:11;;;;;;;3.60;1.87;;;;;;;16.17;100.00;100454.28;5055967;28;20798;-83
2021/05/18 05:26:38;;;;;;;3.17;2.20;;;;;;;16.30;100.00;100427.44;5072265;28;20165;-73
2021/05/18 05:29:05;;;;;;;16.40;1.80;;;;;;;16.49;100.00;100426.50;5071957;28;20905;-79
2021/05/18 05:31:31;;;;;;;4.73;2.30;;;;;;;16.60;100.00;100427.13;5071607;28;20446;-77
2021/05/18 05:33:57;;;;;;;5.47;2.60;;;;;;;16.69;100.00;100420.09;5072316;28;20406;-79
2021/05/18 05:36:23;;;;;;;7.00;2.57;;;;;;;16.78;100.00;100419.22;5071594;28;20411;-74
2021/05/18 05:38:49;;;;;;;5.50;1.77;;;;;;;16.95;100.00;100416.72;5071874;28;20208;-77
2021/05/18 05:41:16;;;;;;;10.73;2.73;;;;;;;16.95;100.00;100424.69;5072056;28;21048;-78
2021/05/18 05:43:45;;;;;;;4.50;1.93;;;;;;;17.02;100.00;100417.78;5070347;28;20407;-76
2021/05/18 05:46:11;;;;;;;3.37;2.20;;;;;;;17.06;100.00;100417.31;5068336;28;20418;-73
2021/05/18 05:48:37;;;;;;;6.37;1.57;;;;;;;17.15;100.00;100411.13;5072887;28;20391;-77
2021/05/18 05:51:04;;;;;;;4.83;2.17;;;;;;;17.20;100.00;100414.13;5072666;28;20402;-76
2021/05/18 05:53:30;;;;;;;5.23;2.27;;;;;;;17.28;100.00;100426.63;5072580;28;20402;-76
2021/05/18 05:55:56;;;;;;;4.87;2.40;;;;;;;17.29;100.00;100430.13;5071319;28;20592;-76
2021/05/18 05:58:22;;;;;;;10.10;2.73;;;;;;;17.36;100.00;100437.31;5069673;28;20448;-75
2021/05/18 06:00:48;;;;;;;7.93;3.07;;;;;;;17.41;100.00;100436.88;5069165;28;20197;-72
2021/05/18 06:03:14;;;;;;;8.33;2.83;;;;;;;17.62;100.00;100424.09;5067300;28;20539;-76
2021/05/18 06:05:39;;;;;;;4.63;2.73;;;;;;;17.79;100.00;100425.06;5069370;28;20931;-73
2021/05/18 06:08:05;;;;;;;4.13;3.20;;;;;;;17.96;100.00;100426.81;5052169;28;20183;-75
2021/05/18 06:10:38;;;;;;;5.73;2.83;;;;;;;18.01;100.00;100421.03;5051309;28;20274;-73
2021/05/18 06:13:21;;;;;;;5.20;2.70;;;;;;;18.02;100.00;100426.19;5051666;28;20153;-74
2021/05/18 06:37:00;;;;;;;4.80;2.20;;;;;;;18.95;100.00;100409.38;5070102;28;20932;-78
2021/05/18 06:47:38;;;;;;;8.13;1.83;;;;;;;19.48;100.00;100406.19;5055326;28;20456;-75
2021/05/18 06:52:39;;;;;;;24.47;2.90;;;;;;;19.41;100.00;100397.22;5051040;28;20164;-73
2021/05/18 06:55:08;;;;;;;11.90;1.90;;;;;;;19.45;100.00;100421.72;5068640;28;20912;-76
2021/05/18 06:57:37;;;;;;;8.60;2.07;;;;;;;19.44;100.00;100412.06;5069097;28;20414;-75
2021/05/18 07:00:09;;;;;;;11.33;2.20;;;;;;;19.48;100.00;100408.88;5050364;28;20815;-75
2021/05/18 07:02:35;;;;;;;8.77;2.03;;;;;;;19.57;100.00;100391.06;5050232;28;20427;-74
2021/05/18 07:05:03;;;;;;;3.57;1.83;;;;;;;19.65;100.00;100412.41;5061112;28;20825;-75
2021/05/18 07:07:32;;;;;;;2.80;1.40;;;;;;;19.77;100.00;100394.19;5050613;28;20913;-76
2021/05/18 07:09:59;;;;;;;7.57;2.07;;;;;;;19.84;100.00;100376.50;5050564;28;20469;-74
2021/05/18 07:12:24;;;;;;;5.90;1.43;;;;;;;19.86;100.00;100411.81;5063195;28;20442;-73
2021/05/18 07:14:50;;;;;;;3.40;1.33;;;;;;;19.84;100.00;100374.66;5069012;28;20438;-75
2021/05/18 07:17:16;;;;;;;4.40;2.27;;;;;;;19.91;100.00;100393.50;5068161;28;20613;-73
2021/05/18 07:19:41;;;;;;;13.47;2.20;;;;;;;20.05;100.00;100403.44;5070017;28;20196;-76
2021/05/18 07:22:07;;;;;;;3.80;1.70;;;;;;;20.26;100.00;100394.03;5065548;28;20219;-74
2021/05/18 07:24:33;;;;;;;3.03;1.73;;;;;;;20.47;100.00;100419.13;5057182;28;20184;-75
2021/05/18 07:27:02;;;;;;;4.50;1.90;;;;;;;20.56;100.00;100414.59;5069116;28;20483;-74
2021/05/18 07:29:27;;;;;;;10.73;2.03;;;;;;;20.72;100.00;100424.34;5069808;28;20838;-76
2021/05/18 07:31:53;;;;;;;5.80;1.70;;;;;;;20.78;100.00;100410.25;5057615;28;20880;-75
2021/05/18 07:34:19;;;;;;;5.63;1.77;;;;;;;20.67;100.00;100411.50;5060349;28;20222;-75
2021/05/18 07:36:46;;;;;;;4.47;2.10;;;;;;;20.64;100.00;100409.22;5069486;28;20196;-75
2021/05/18 07:39:12;;;;;;;3.60;2.07;;;;;;;20.72;100.00;100417.16;5069237;28;20465;-71
2021/05/18 07:41:38;;;;;;;3.67;1.50;;;;;;;20.78;100.00;100418.28;5069427;28;20168;-74
2021/05/18 07:44:04;;;;;;;3.33;1.57;;;;;;;20.99;100.00;100412.31;5070711;28;20160;-71
2021/05/18 07:46:31;;;;;;;5.63;1.70;;;;;;;21.17;100.00;100415.53;5059145;28;20415;-71
2021/05/18 07:59:48;;;;;;;5.70;1.80;;;;;;;20.77;100.00;100433.47;5069187;28;20413;-84
2021/05/18 08:07:38;;;;;;;9.20;1.47;;;;;;;20.48;100.00;100422.66;5068146;28;21061;-75
2021/05/18 08:12:54;;;;;;;4.83;1.67;;;;;;;20.68;100.00;100426.53;5039734;28;20180;-71
2021/05/18 08:18:16;;;;;;;6.43;1.43;;;;;;;20.89;99.80;100427.75;5043517;28;20188;-77
2021/05/18 09:50:28;;;;;;;6.13;1.23;;;;;;;22.40;79.68;100397.19;5052010;28;20391;-80
2021/05/18 10:34:40;;;;;;;6.77;1.10;;;;;;;22.88;73.89;100494.00;5070812;28;20482;-76
2021/05/18 10:37:50;;;;;;;7.37;1.63;;;;;;;22.64;71.34;100425.50;5071049;28;20779;-80
2021/05/18 10:40:25;;;;;;;6.83;1.33;;;;;;;22.50;70.09;100436.25;5070169;28;20458;-77
2021/05/18 10:43:13;;;;;;;8.90;1.20;;;;;;;22.57;71.41;100418.41;5070448;28;20907;-78
2021/05/18 10:45:59;;;;;;;6.07;1.43;;;;;;;22.52;72.64;100435.06;5049572;28;20423;-74
2021/05/18 10:48:37;;;;;;;5.50;1.00;;;;;;;22.70;74.55;100426.59;5050821;28;20442;-74
2021/05/18 10:51:31;;;;;;;5.67;1.70;;;;;;;22.53;73.16;100441.22;5051197;28;20913;-78
2021/05/18 10:54:05;;;;;;;9.47;1.70;;;;;;;22.60;71.50;100428.75;5049667;28;20485;-77
2021/05/18 10:57:00;;;;;;;10.50;1.60;;;;;;;22.89;72.71;100427.84;5050475;28;20399;-77
2021/05/18 10:59:37;;;;;;;3.60;1.07;;;;;;;23.29;71.20;100421.03;5049795;28;20976;-74
2021/05/18 11:02:08;;;;;;;4.70;1.40;;;;;;;23.37;70.55;100436.97;5061122;28;20407;-78
2021/05/18 11:04:47;;;;;;;13.30;1.20;;;;;;;23.29;67.33;100425.56;5070462;28;20403;-79
2021/05/18 11:07:16;;;;;;;6.10;1.23;;;;;;;23.44;64.99;100459.31;5070539;28;20403;-70
2021/05/18 11:09:42;;;;;;;6.03;0.90;;;;;;;23.13;64.71;100419.44;5070625;28;20435;-78
2021/05/18 11:12:10;;;;;;;12.33;1.17;;;;;;;22.85;64.56;100424.72;5070681;28;20394;-74
2021/05/18 11:14:47;;;;;;;6.50;1.00;;;;;;;22.91;65.55;100415.94;5069282;28;20255;-73
2021/05/18 11:17:15;;;;;;;10.73;1.23;;;;;;;22.87;67.71;100421.84;5068631;28;20407;-77
2021/05/18 11:19:57;;;;;;;13.83;1.40;;;;;;;22.77;68.29;100424.00;5061531;28;20450;-77
2021/05/18 11:25:08;;;;;;;8.47;1.27;;;;;;;22.93;67.33;100399.66;5057279;28;20556;-76
2021/05/18 11:27:35;;;;;;;4.80;1.20;;;;;;;23.38;65.96;100411.00;5068852;28;20407;-70
2021/05/18 11:30:01;;;;;;;7.80;1.43;;;;;;;23.30;65.73;100406.59;5069714;28;20391;-77
2021/05/18 11:32:27;;;;;;;4.80;1.30;;;;;;;23.09;65.27;100395.88;5068776;28;20462;-73
2021/05/18 11:34:57;;;;;;;17.40;2.60;;;;;;;23.38;64.43;100400.25;5070563;28;20926;-79
2021/05/18 11:37:23;;;;;;;11.50;1.30;;;;;;;23.31;62.21;100416.28;5074940;28;20180;-72
2021/05/18 11:39:49;;;;;;;2.77;0.90;;;;;;;23.04;63.54;100390.25;5073841;28;20466;-80
2021/05/18 11:42:29;;;;;;;2.63;0.97;;;;;;;22.94;64.95;100390.59;5073922;28;20413;-70
2021/05/18 11:45:13;;;;;;;4.20;1.03;;;;;;;23.21;64.91;100389.00;5074355;28;20203;-80
2021/05/18 11:47:40;;;;;;;6.17;1.10;;;;;;;23.26;63.83;100390.06;5072711;28;20502;-73
2021/05/18 11:50:06;;;;;;;5.23;0.90;;;;;;;23.25;62.16;100401.81;5063670;28;20430;-78
2021/05/18 11:52:36;;;;;;;8.90;1.30;;;;;;;23.29;62.14;100404.13;5073338;28;20419;-76
2021/05/18 11:55:18;;;;;;;8.00;1.20;;;;;;;23.37;62.57;100387.88;5073330;28;20415;-80
2021/05/18 11:57:44;;;;;;;14.03;1.10;;;;;;;23.37;62.65;100396.75;5073547;28;20407;-80
2021/05/18 12:00:33;;;;;;;5.53;1.33;;;;;;;23.37;62.27;100380.66;5070439;28;20458;-77
2021/05/18 12:03:11;;;;;;;3.37;0.90;;;;;;;23.34;62.02;100389.06;5072895;28;20171;-74
2021/05/18 12:05:55;;;;;;;3.10;1.30;;;;;;;23.53;63.97;100388.41;5065467;28;20446;-71
2021/05/18 12:08:43;;;;;;;6.60;1.13;;;;;;;23.60;62.24;100396.53;5053065;28;20777;-73
2021/05/18 12:11:20;;;;;;;4.20;0.90;;;;;;;23.66;62.54;100379.66;5062428;28;20433;-73
2021/05/18 12:13:50;;;;;;;3.10;1.07;;;;;;;23.63;63.06;100390.78;5073028;28;20407;-73
2021/05/18 12:16:18;;;;;;;3.30;1.30;;;;;;;23.70;62.51;100383.59;5070430;28;20426;-82
2021/05/18 12:18:44;;;;;;;2.97;0.90;;;;;;;23.71;62.01;100404.03;5071740;28;20533;-85
2021/05/18 12:21:16;;;;;;;8.47;0.97;;;;;;;23.55;62.40;100393.56;5073658;28;20955;-77
2021/05/18 12:23:42;;;;;;;2.50;0.80;;;;;;;23.52;62.83;100373.34;5068429;28;20815;-73
2021/05/18 12:26:18;;;;;;;13.00;1.20;;;;;;;23.65;60.85;100382.53;5067644;28;20430;-71
2021/05/18 12:28:55;;;;;;;3.00;0.70;;;;;;;23.18;62.22;100402.75;5071902;28;20437;-72
2021/05/18 12:31:37;;;;;;;4.43;1.00;;;;;;;23.36;62.75;100376.31;5065297;28;20442;-83
2021/05/18 12:34:05;;;;;;;3.90;1.00;;;;;;;23.62;60.25;100377.56;5057176;28;20423;-70
2021/05/18 12:36:44;;;;;;;5.17;1.80;;;;;;;23.53;59.29;100377.69;5061979;28;20828;-76
2021/05/18 12:39:11;;;;;;;8.10;1.80;;;;;;;23.69;61.65;100371.22;5071769;28;20457;-71
2021/05/18 12:41:56;;;;;;;5.30;1.07;;;;;;;23.96;62.44;100369.53;5072237;28;21020;-78
2021/05/18 12:44:24;;;;;;;4.83;1.10;;;;;;;24.07;62.16;100368.09;5072567;28;20814;-73
2021/05/18 12:47:02;;;;;;;4.20;0.90;;;;;;;23.73;59.46;100374.34;5070902;28;20431;-83
2021/05/18 12:49:40;;;;;;;4.80;1.23;;;;;;;23.48;59.17;100357.81;5072438;28;20394;-76
2021/05/18 12:52:15;;;;;;;8.90;1.60;;;;;;;23.31;59.02;100373.41;5071839;28;20896;-80
2021/05/18 12:55:00;;;;;;;9.20;1.00;;;;;;;23.61;58.83;100355.28;5068539;28;20475;-73
2021/05/18 12:57:29;;;;;;;15.87;1.30;;;;;;;23.57;58.83;100378.09;5071657;28;20441;-72
2021/05/18 13:00:12;;;;;;;15.33;1.60;;;;;;;23.66;58.70;100373.47;5071328;28;20808;-80
2021/05/18 13:02:46;;;;;;;3.50;1.17;;;;;;;23.63;58.79;100345.16;5071212;28;20785;-81
2021/05/18 13:05:28;;;;;;;5.40;1.43;;;;;;;23.77;56.53;100338.84;5069889;28;20402;-71
2021/05/18 13:08:06;;;;;;;10.13;1.87;;;;;;;24.00;57.02;100367.25;5064778;28;20407;-77
2021/05/18 13:10:49;;;;;;;16.03;2.70;;;;;;;24.24;57.81;100357.84;5062923;28;20437;-71
2021/05/18 13:13:18;;;;;;;6.43;1.10;;;;;;;23.99;57.31;100347.63;5052245;28;20503;-75
2021/05/18 13:15:46;;;;;;;6.17;0.80;;;;;;;23.88;58.29;100366.16;5052104;28;20744;-77
2021/05/18 13:18:13;;;;;;;6.00;1.20;;;;;;;23.85;57.04;100347.75;5055723;28;20411;-72
2021/05/18 13:20:54;;;;;;;15.50;2.30;;;;;;;23.87;55.96;100343.84;5072604;28;20910;-84
2021/05/18 13:28:34;;;;;;;6.13;2.03;;;;;;;23.86;58.92;100336.81;5055243;28;20418;-89
2021/05/18 13:31:00;;;;;;;9.63;1.70;;;;;;;23.72;55.19;100361.94;5064407;28;20419;-83
2021/05/18 13:33:26;;;;;;;3.90;1.10;;;;;;;24.00;54.89;100369.94;5074500;28;20165;-75
2021/05/18 13:35:52;;;;;;;11.07;1.20;;;;;;;23.79;55.73;100373.53;5072958;28;21098;-78
2021/05/18 13:38:17;;;;;;;7.00;1.07;;;;;;;23.68;56.30;100358.81;5073652;28;20302;-77
2021/05/18 13:40:43;;;;;;;13.97;1.70;;;;;;;23.67;55.67;100351.81;5074407;28;20273;-71
2021/05/18 13:43:09;;;;;;;7.83;1.30;;;;;;;23.84;54.83;100371.09;5073630;28;20153;-73
2021/05/18 13:45:35;;;;;;;12.10;1.83;;;;;;;23.82;55.69;100361.59;5072594;28;20163;-80
2021/05/18 13:48:00;;;;;;;5.77;1.33;;;;;;;23.63;56.46;100366.63;5070664;28;21189;-73
2021/05/18 13:50:27;;;;;;;10.73;2.37;;;;;;;23.57;56.13;100418.34;5069973;28;20178;-79
2021/05/18 13:52:54;;;;;;;3.90;1.00;;;;;;;23.51;57.62;100370.88;5069051;28;20161;-82
2021/05/18 13:55:20;;;;;;;7.97;1.63;;;;;;;23.54;58.85;100383.88;5054237;28;20411;-73
2021/05/18 13:57:46;;;;;;;2.90;0.80;;;;;;;23.42;59.19;100366.66;5056493;28;20411;-79
2021/05/18 14:00:13;;;;;;;11.63;0.97;;;;;;;23.43;59.53;100361.13;5061596;28;20454;-72
2021/05/18 14:02:41;;;;;;;14.63;1.67;;;;;;;23.64;59.16;100376.31;5051172;28;20177;-78
2021/05/18 14:05:09;;;;;;;5.47;1.70;;;;;;;23.57;59.42;100370.06;5059111;28;20399;-72
2021/05/18 14:08:24;;;;;;;10.77;1.10;;;;;;;23.80;59.93;100373.34;5064725;28;20403;-75
2021/05/18 14:11:15;;;;;;;13.73;1.90;;;;;;;23.96;56.45;100369.53;5063827;28;20402;-75
2021/05/18 14:13:51;;;;;;;8.33;1.40;;;;;;;23.82;56.06;100345.50;5058770;28;20952;-81
2021/05/18 14:16:19;;;;;;;11.17;1.33;;;;;;;23.82;56.10;100362.41;5064728;28;20406;-76
2021/05/18 14:18:49;;;;;;;2.40;0.80;;;;;;;23.60;55.50;100390.31;5070638;28;20524;-77
2021/05/18 14:21:15;;;;;;;6.23;1.17;;;;;;;23.48;55.76;100380.13;5059236;28;20438;-82
2021/05/18 14:23:53;;;;;;;6.87;0.90;;;;;;;23.53;57.02;100388.41;5067195;28;20485;-73
2021/05/18 14:26:22;;;;;;;6.10;1.03;;;;;;;23.52;57.79;100373.34;5056645;28;20650;-82
2021/05/18 14:28:48;;;;;;;2.73;0.80;;;;;;;23.66;57.94;100376.16;5062048;28;20412;-78
2021/05/18 14:31:14;;;;;;;7.93;1.43;;;;;;;23.51;57.52;100378.91;5065201;28;20429;-79
2021/05/18 14:33:41;;;;;;;8.83;1.33;;;;;;;23.50;57.59;100361.13;5050710;28;20459;-78
2021/05/18 14:36:08;;;;;;;7.60;1.60;;;;;;;23.72;57.38;100375.34;5067397;28;20438;-74
2021/05/18 14:38:34;;;;;;;16.83;1.70;;;;;;;23.83;56.49;100376.66;5066868;28;20876;-81
2021/05/18 14:56:53;;;;;;;12.13;1.80;;;;;;;23.91;56.67;100376.50;5057961;28;20420;-83
2021/05/18 14:59:18;;;;;;;3.80;1.17;;;;;;;23.88;57.03;100368.81;5054935;28;20423;-83
2021/05/18 15:01:44;;;;;;;16.30;2.20;;;;;;;23.95;56.69;100377.75;5069069;28;20462;-79
2021/05/18 15:04:10;;;;;;;9.40;1.23;;;;;;;24.06;56.84;100386.06;5060812;28;20500;-79
2021/05/18 15:06:35;;;;;;;15.37;1.53;;;;;;;24.07;57.08;100374.31;5070118;28;20169;-73
2021/05/18 15:09:01;;;;;;;10.10;1.60;;;;;;;23.76;56.49;100384.66;5066400;28;20604;-77
2021/05/18 15:11:26;;;;;;;3.77;1.73;;;;;;;23.68;56.01;100419.72;5052089;28;20188;-73
2021/05/18 15:13:52;;;;;;;9.80;1.50;;;;;;;23.33;55.92;100394.66;5053802;28;20165;-72
2021/05/18 15:16:18;;;;;;;10.37;1.73;;;;;;;23.35;56.17;100366.63;5063481;28;20165;-71
2021/05/18 15:18:45;;;;;;;4.53;1.40;;;;;;;23.19;56.06;100404.41;5051989;28;20172;-70
2021/05/18 15:21:11;;;;;;;6.77;1.63;;;;;;;22.79;57.04;100382.59;5069876;28;20642;-71
2021/05/18 15:23:40;;;;;;;2.60;0.87;;;;;;;22.91;56.85;100389.13;5070239;28;20481;-80
2021/05/18 15:26:06;;;;;;;3.03;1.07;;;;;;;22.83;57.55;100383.06;5063203;28;20149;-72
2021/05/18 15:28:31;;;;;;;7.90;1.70;;;;;;;22.85;58.00;100370.28;5069775;28;20813;-81
2021/05/18 15:30:57;;;;;;;5.70;1.07;;;;;;;22.86;58.13;100396.09;5069242;28;20958;-71
2021/05/18 15:33:23;;;;;;;9.33;1.40;;;;;;;22.88;57.89;100376.09;5062680;28;20192;-72
2021/05/18 15:35:48;;;;;;;7.10;0.93;;;;;;;22.71;58.21;100377.34;5061647;28;20169;-76
2021/05/18 15:38:15;;;;;;;6.33;1.77;;;;;;;22.82;57.31;100395.63;5068700;28;20483;-76
2021/05/18 15:40:40;;;;;;;6.97;0.90;;;;;;;22.77;57.51;100383.81;5067586;28;20237;-72
2021/05/18 15:43:06;;;;;;;6.53;0.90;;;;;;;22.58;57.70;100393.28;5087677;28;20470;-80
2021/05/18 15:45:32;;;;;;;3.07;0.90;;;;;;;22.55;58.41;100391.00;5067300;28;20169;-73
2021/05/18 15:47:57;;;;;;;2.10;0.80;;;;;;;22.40;59.00;100415.94;5067518;28;20176;-78
2021/05/18 15:50:23;;;;;;;5.50;0.97;;;;;;;22.36;59.21;100393.22;5067771;28;20688;-73
2021/05/18 15:52:50;;;;;;;2.97;0.80;;;;;;;22.29;60.10;100407.53;5055118;28;20168;-74
2021/05/18 15:55:15;;;;;;;8.07;1.00;;;;;;;22.22;60.61;100401.28;5065258;28;20203;-72
2021/05/18 15:57:41;;;;;;;6.20;1.50;;;;;;;22.19;60.85;100415.88;5068718;28;20572;-71
2021/05/18 16:00:07;;;;;;;6.30;1.53;;;;;;;22.15;60.88;100385.16;5067676;28;20264;-75
2021/05/18 16:02:33;;;;;;;8.50;1.63;;;;;;;22.17;61.37;100409.06;5067587;28;20605;-76
2021/05/18 16:04:58;;;;;;;5.17;1.47;;;;;;;22.15;61.81;100390.50;5052507;28;21023;-72
2021/05/18 16:07:26;;;;;;;5.47;1.10;;;;;;;22.04;61.29;100413.19;5061686;28;20233;-73
2021/05/18 16:09:52;;;;;;;11.63;1.50;;;;;;;22.05;61.98;100395.28;5067035;28;20631;-72
2021/05/18 16:12:17;;;;;;;13.47;1.77;;;;;;;22.09;62.56;100393.94;5063871;28;20435;-73
2021/05/18 16:14:47;;;;;;;2.50;1.10;;;;;;;22.23;61.61;100406.47;5065963;28;20185;-73
2021/05/18 16:17:13;;;;;;;4.77;1.03;;;;;;;22.39;60.91;100402.75;5064941;28;20240;-74
2021/05/18 16:19:38;;;;;;;6.07;1.10;;;;;;;22.51;60.92;100398.56;5056016;28;20437;-73
2021/05/18 16:22:04;;;;;;;2.30;0.93;;;;;;;22.15;61.77;100401.22;5060151;28;20467;-73
2021/05/18 16:24:33;;;;;;;6.20;0.90;;;;;;;22.25;61.97;100404.44;5061253;28;20165;-72
2021/05/18 16:26:59;;;;;;;5.20;0.97;;;;;;;22.05;62.35;100389.91;5061894;28;20659;-72
2021/05/18 16:29:25;;;;;;;5.93;1.20;;;;;;;21.85;63.24;100403.88;5061259;28;20498;-75
2021/05/18 16:31:50;;;;;;;3.70;0.90;;;;;;;21.70;63.73;100400.34;5053725;28;20162;-71
2021/05/18 16:34:16;;;;;;;5.23;1.20;;;;;;;21.59;64.82;100400.78;5053592;28;20457;-74
2021/05/18 16:36:41;;;;;;;5.30;1.00;;;;;;;21.57;65.33;100421.53;5057480;28;20179;-74